Terminal Aerodrome Forecast
Issued by NWS North Platte, NE

Home | Current Version | Previous Version | Text Only | Print | Product List | Glossary Off
Versions: 1 2 3 4 5 6 7 8 9 10 11 12 13 14 15 16 17 18 19

000
FTUS43 KLBF 120300 AAA
TAFVTN
TAF AMD
KVTN 120301Z 1203/1224 02007KT 6SM -RA SCT040 BKN120
      TEMPO 1203/1205 VRB21G31KT 3SM TSRA BKN030CB
     FM120500 02005KT P6SM SCT100 SCT250=

USA.gov is the U.S. government's official web portal to all federal, state and local government web resources and services.